sensor_id;sensor_type;location;lat;lon;timestamp;P1;durP1;ratioP1;P2;durP2;ratioP2
12554;SDS011;6343;50.868;4.700;2022-08-01T00:00:06;1.30;;;1.07;;
12554;SDS011;6343;50.868;4.700;2022-08-01T00:02:32;2.77;;;1.47;;
12554;SDS011;6343;50.868;4.700;2022-08-01T00:04:58;3.50;;;1.20;;
12554;SDS011;6343;50.868;4.700;2022-08-01T00:07:25;2.00;;;1.10;;
12554;SDS011;6343;50.868;4.700;2022-08-01T00:09:51;3.03;;;1.60;;
12554;SDS011;6343;50.868;4.700;2022-08-01T00:12:17;2.10;;;1.40;;
12554;SDS011;6343;50.868;4.700;2022-08-01T00:14:43;3.70;;;1.60;;
12554;SDS011;6343;50.868;4.700;2022-08-01T00:17:09;3.30;;;1.60;;
12554;SDS011;6343;50.868;4.700;2022-08-01T00:19:35;3.10;;;1.80;;
12554;SDS011;6343;50.868;4.700;2022-08-01T00:22:01;3.90;;;1.80;;
12554;SDS011;6343;50.868;4.700;2022-08-01T00:24:28;2.93;;;1.70;;
12554;SDS011;6343;50.868;4.700;2022-08-01T00:26:54;5.90;;;2.10;;
12554;SDS011;6343;50.868;4.700;2022-08-01T00:29:20;2.87;;;2.10;;
12554;SDS011;6343;50.868;4.700;2022-08-01T00:31:48;4.13;;;2.10;;
12554;SDS011;6343;50.868;4.700;2022-08-01T00:34:15;4.77;;;2.47;;
12554;SDS011;6343;50.868;4.700;2022-08-01T00:36:41;5.23;;;2.57;;
12554;SDS011;6343;50.868;4.700;2022-08-01T00:39:07;3.63;;;2.20;;
12554;SDS011;6343;50.868;4.700;2022-08-01T00:41:33;3.03;;;2.00;;
12554;SDS011;6343;50.868;4.700;2022-08-01T00:44:01;5.00;;;2.63;;
12554;SDS011;6343;50.868;4.700;2022-08-01T00:46:27;4.57;;;2.20;;
12554;SDS011;6343;50.868;4.700;2022-08-01T00:48:53;9.33;;;2.50;;
12554;SDS011;6343;50.868;4.700;2022-08-01T00:51:20;3.13;;;2.30;;
12554;SDS011;6343;50.868;4.700;2022-08-01T00:53:46;3.77;;;2.50;;
12554;SDS011;6343;50.868;4.700;2022-08-01T00:56:12;6.60;;;2.60;;
12554;SDS011;6343;50.868;4.700;2022-08-01T00:58:39;3.40;;;2.37;;
12554;SDS011;6343;50.868;4.700;2022-08-01T01:01:05;4.37;;;3.00;;
12554;SDS011;6343;50.868;4.700;2022-08-01T01:03:31;3.33;;;2.27;;
12554;SDS011;6343;50.868;4.700;2022-08-01T01:06:01;4.20;;;2.40;;
12554;SDS011;6343;50.868;4.700;2022-08-01T01:08:33;7.57;;;2.40;;
12554;SDS011;6343;50.868;4.700;2022-08-01T01:11:03;3.63;;;2.70;;
12554;SDS011;6343;50.868;4.700;2022-08-01T01:15:59;4.40;;;2.97;;
12554;SDS011;6343;50.868;4.700;2022-08-01T01:32:14;5.27;;;2.60;;
12554;SDS011;6343;50.868;4.700;2022-08-01T01:34:44;5.33;;;2.80;;
12554;SDS011;6343;50.868;4.700;2022-08-01T01:37:20;5.00;;;3.07;;
12554;SDS011;6343;50.868;4.700;2022-08-01T01:39:48;6.27;;;3.20;;
12554;SDS011;6343;50.868;4.700;2022-08-01T01:42:16;6.80;;;3.50;;
12554;SDS011;6343;50.868;4.700;2022-08-01T01:44:43;7.27;;;3.13;;
12554;SDS011;6343;50.868;4.700;2022-08-01T01:47:12;4.97;;;2.90;;
12554;SDS011;6343;50.868;4.700;2022-08-01T01:49:40;6.27;;;3.27;;
12554;SDS011;6343;50.868;4.700;2022-08-01T01:52:07;6.77;;;2.80;;
12554;SDS011;6343;50.868;4.700;2022-08-01T01:54:35;9.90;;;4.07;;
12554;SDS011;6343;50.868;4.700;2022-08-01T01:57:02;5.03;;;2.80;;
12554;SDS011;6343;50.868;4.700;2022-08-01T01:59:29;4.50;;;3.00;;
12554;SDS011;6343;50.868;4.700;2022-08-01T02:01:56;9.40;;;3.47;;
12554;SDS011;6343;50.868;4.700;2022-08-01T02:04:24;5.93;;;3.27;;
12554;SDS011;6343;50.868;4.700;2022-08-01T02:06:51;4.97;;;2.93;;
12554;SDS011;6343;50.868;4.700;2022-08-01T02:09:19;6.43;;;3.10;;
12554;SDS011;6343;50.868;4.700;2022-08-01T02:11:46;5.40;;;3.20;;
12554;SDS011;6343;50.868;4.700;2022-08-01T02:14:13;5.63;;;3.10;;
12554;SDS011;6343;50.868;4.700;2022-08-01T02:16:41;5.30;;;3.23;;
12554;SDS011;6343;50.868;4.700;2022-08-01T02:19:08;3.97;;;2.93;;
12554;SDS011;6343;50.868;4.700;2022-08-01T02:24:09;6.50;;;3.37;;
12554;SDS011;6343;50.868;4.700;2022-08-01T02:26:36;6.17;;;3.40;;
12554;SDS011;6343;50.868;4.700;2022-08-01T02:29:08;5.63;;;3.60;;
12554;SDS011;6343;50.868;4.700;2022-08-01T02:31:38;6.10;;;3.33;;
12554;SDS011;6343;50.868;4.700;2022-08-01T02:34:06;6.13;;;3.17;;
12554;SDS011;6343;50.868;4.700;2022-08-01T02:36:33;5.83;;;3.30;;
12554;SDS011;6343;50.868;4.700;2022-08-01T02:39:00;6.47;;;3.40;;
12554;SDS011;6343;50.868;4.700;2022-08-01T02:41:31;6.27;;;3.40;;
12554;SDS011;6343;50.868;4.700;2022-08-01T02:44:03;6.93;;;3.70;;
12554;SDS011;6343;50.868;4.700;2022-08-01T02:46:49;7.37;;;3.90;;
12554;SDS011;6343;50.868;4.700;2022-08-01T02:49:16;7.20;;;4.10;;
12554;SDS011;6343;50.868;4.700;2022-08-01T02:51:44;6.47;;;4.00;;
12554;SDS011;6343;50.868;4.700;2022-08-01T02:54:12;4.93;;;3.47;;
12554;SDS011;6343;50.868;4.700;2022-08-01T02:56:38;6.80;;;4.20;;
12554;SDS011;6343;50.868;4.700;2022-08-01T02:59:09;6.37;;;4.37;;
12554;SDS011;6343;50.868;4.700;2022-08-01T03:01:36;7.10;;;3.87;;
12554;SDS011;6343;50.868;4.700;2022-08-01T03:04:04;6.93;;;4.10;;
12554;SDS011;6343;50.868;4.700;2022-08-01T03:06:31;6.67;;;5.23;;
12554;SDS011;6343;50.868;4.700;2022-08-01T03:08:57;7.53;;;5.00;;
12554;SDS011;6343;50.868;4.700;2022-08-01T03:11:24;6.83;;;4.20;;
12554;SDS011;6343;50.868;4.700;2022-08-01T03:13:55;8.17;;;5.60;;
12554;SDS011;6343;50.868;4.700;2022-08-01T03:16:21;8.70;;;5.77;;
12554;SDS011;6343;50.868;4.700;2022-08-01T03:18:48;8.57;;;5.53;;
12554;SDS011;6343;50.868;4.700;2022-08-01T03:21:14;10.17;;;5.80;;
12554;SDS011;6343;50.868;4.700;2022-08-01T03:23:41;10.73;;;6.30;;
12554;SDS011;6343;50.868;4.700;2022-08-01T03:26:08;10.40;;;6.27;;
12554;SDS011;6343;50.868;4.700;2022-08-01T03:28:35;11.00;;;6.27;;
12554;SDS011;6343;50.868;4.700;2022-08-01T03:31:01;8.23;;;6.30;;
12554;SDS011;6343;50.868;4.700;2022-08-01T03:33:28;12.97;;;6.70;;
12554;SDS011;6343;50.868;4.700;2022-08-01T03:35:54;9.63;;;6.73;;
12554;SDS011;6343;50.868;4.700;2022-08-01T03:38:22;13.47;;;7.47;;
12554;SDS011;6343;50.868;4.700;2022-08-01T03:40:53;12.93;;;7.60;;
12554;SDS011;6343;50.868;4.700;2022-08-01T03:43:26;12.77;;;8.00;;
12554;SDS011;6343;50.868;4.700;2022-08-01T03:45:54;16.33;;;8.57;;
12554;SDS011;6343;50.868;4.700;2022-08-01T03:48:24;10.17;;;5.83;;
12554;SDS011;6343;50.868;4.700;2022-08-01T03:50:53;13.83;;;7.70;;
12554;SDS011;6343;50.868;4.700;2022-08-01T03:53:20;15.47;;;8.03;;
12554;SDS011;6343;50.868;4.700;2022-08-01T03:55:47;12.30;;;8.07;;
12554;SDS011;6343;50.868;4.700;2022-08-01T03:58:15;19.17;;;9.67;;
12554;SDS011;6343;50.868;4.700;2022-08-01T04:00:45;17.23;;;10.07;;
12554;SDS011;6343;50.868;4.700;2022-08-01T04:03:11;14.00;;;9.50;;
12554;SDS011;6343;50.868;4.700;2022-08-01T04:05:40;19.20;;;10.73;;
12554;SDS011;6343;50.868;4.700;2022-08-01T04:08:07;23.37;;;13.10;;
12554;SDS011;6343;50.868;4.700;2022-08-01T04:10:33;22.33;;;11.60;;
12554;SDS011;6343;50.868;4.700;2022-08-01T04:13:00;21.83;;;11.70;;
12554;SDS011;6343;50.868;4.700;2022-08-01T04:15:26;20.63;;;12.43;;
12554;SDS011;6343;50.868;4.700;2022-08-01T04:17:53;24.07;;;12.33;;
12554;SDS011;6343;50.868;4.700;2022-08-01T04:20:20;22.37;;;12.17;;
12554;SDS011;6343;50.868;4.700;2022-08-01T04:22:46;19.77;;;11.87;;
12554;SDS011;6343;50.868;4.700;2022-08-01T04:25:14;20.23;;;11.33;;
12554;SDS011;6343;50.868;4.700;2022-08-01T04:27:42;20.17;;;11.57;;
12554;SDS011;6343;50.868;4.700;2022-08-01T04:30:09;18.93;;;11.87;;
12554;SDS011;6343;50.868;4.700;2022-08-01T04:32:37;18.77;;;11.73;;
12554;SDS011;6343;50.868;4.700;2022-08-01T04:35:07;17.10;;;11.73;;
12554;SDS011;6343;50.868;4.700;2022-08-01T04:37:34;21.00;;;11.67;;
12554;SDS011;6343;50.868;4.700;2022-08-01T04:40:02;17.90;;;10.90;;
12554;SDS011;6343;50.868;4.700;2022-08-01T04:42:30;20.73;;;11.93;;
12554;SDS011;6343;50.868;4.700;2022-08-01T04:44:57;17.63;;;11.87;;
12554;SDS011;6343;50.868;4.700;2022-08-01T04:47:23;19.63;;;11.47;;
12554;SDS011;6343;50.868;4.700;2022-08-01T04:49:49;14.33;;;10.20;;
12554;SDS011;6343;50.868;4.700;2022-08-01T04:52:16;16.83;;;10.17;;
12554;SDS011;6343;50.868;4.700;2022-08-01T04:54:42;18.23;;;9.27;;
12554;SDS011;6343;50.868;4.700;2022-08-01T04:57:09;19.90;;;10.13;;
12554;SDS011;6343;50.868;4.700;2022-08-01T04:59:35;17.20;;;9.97;;
12554;SDS011;6343;50.868;4.700;2022-08-01T05:02:16;14.77;;;9.67;;
12554;SDS011;6343;50.868;4.700;2022-08-01T05:04:44;17.23;;;9.60;;
12554;SDS011;6343;50.868;4.700;2022-08-01T05:07:10;17.40;;;9.80;;
12554;SDS011;6343;50.868;4.700;2022-08-01T05:09:36;14.80;;;9.03;;
12554;SDS011;6343;50.868;4.700;2022-08-01T05:12:03;13.93;;;7.83;;
12554;SDS011;6343;50.868;4.700;2022-08-01T05:14:31;12.40;;;7.93;;
12554;SDS011;6343;50.868;4.700;2022-08-01T05:17:01;13.80;;;8.73;;
12554;SDS011;6343;50.868;4.700;2022-08-01T05:19:38;14.60;;;8.27;;
12554;SDS011;6343;50.868;4.700;2022-08-01T05:22:05;14.57;;;8.53;;
12554;SDS011;6343;50.868;4.700;2022-08-01T05:24:32;15.93;;;8.80;;
12554;SDS011;6343;50.868;4.700;2022-08-01T05:26:59;12.83;;;7.60;;
12554;SDS011;6343;50.868;4.700;2022-08-01T05:29:25;15.87;;;8.27;;
12554;SDS011;6343;50.868;4.700;2022-08-01T05:31:52;11.40;;;7.73;;
12554;SDS011;6343;50.868;4.700;2022-08-01T05:34:18;16.83;;;7.57;;
12554;SDS011;6343;50.868;4.700;2022-08-01T05:36:44;9.80;;;7.13;;
12554;SDS011;6343;50.868;4.700;2022-08-01T05:39:11;11.37;;;6.70;;
12554;SDS011;6343;50.868;4.700;2022-08-01T05:41:37;11.27;;;6.93;;
12554;SDS011;6343;50.868;4.700;2022-08-01T05:44:04;13.33;;;6.90;;
12554;SDS011;6343;50.868;4.700;2022-08-01T05:46:30;11.90;;;7.67;;
12554;SDS011;6343;50.868;4.700;2022-08-01T05:48:56;11.17;;;6.80;;
12554;SDS011;6343;50.868;4.700;2022-08-01T05:51:23;9.50;;;7.37;;
12554;SDS011;6343;50.868;4.700;2022-08-01T05:53:49;10.27;;;7.07;;
12554;SDS011;6343;50.868;4.700;2022-08-01T05:56:15;11.93;;;7.70;;
12554;SDS011;6343;50.868;4.700;2022-08-01T05:58:42;11.43;;;6.73;;
12554;SDS011;6343;50.868;4.700;2022-08-01T06:01:08;16.40;;;6.97;;
12554;SDS011;6343;50.868;4.700;2022-08-01T06:03:34;12.10;;;6.93;;
12554;SDS011;6343;50.868;4.700;2022-08-01T06:06:00;10.53;;;6.67;;
12554;SDS011;6343;50.868;4.700;2022-08-01T06:08:26;8.87;;;5.33;;
12554;SDS011;6343;50.868;4.700;2022-08-01T06:10:52;12.37;;;5.80;;
12554;SDS011;6343;50.868;4.700;2022-08-01T06:13:19;15.13;;;5.63;;
12554;SDS011;6343;50.868;4.700;2022-08-01T06:15:45;8.70;;;5.70;;
12554;SDS011;6343;50.868;4.700;2022-08-01T06:18:12;11.67;;;6.23;;
12554;SDS011;6343;50.868;4.700;2022-08-01T06:20:38;13.50;;;6.50;;
12554;SDS011;6343;50.868;4.700;2022-08-01T06:23:04;9.00;;;5.60;;
12554;SDS011;6343;50.868;4.700;2022-08-01T06:25:30;9.53;;;5.03;;
12554;SDS011;6343;50.868;4.700;2022-08-01T06:27:56;8.37;;;5.27;;
12554;SDS011;6343;50.868;4.700;2022-08-01T06:30:23;9.67;;;6.10;;
12554;SDS011;6343;50.868;4.700;2022-08-01T06:32:49;7.53;;;5.50;;
12554;SDS011;6343;50.868;4.700;2022-08-01T06:35:15;8.90;;;5.43;;
12554;SDS011;6343;50.868;4.700;2022-08-01T06:37:41;12.27;;;6.03;;
12554;SDS011;6343;50.868;4.700;2022-08-01T06:40:09;12.83;;;5.40;;
12554;SDS011;6343;50.868;4.700;2022-08-01T06:42:35;7.00;;;5.17;;
12554;SDS011;6343;50.868;4.700;2022-08-01T06:45:05;13.70;;;5.60;;
12554;SDS011;6343;50.868;4.700;2022-08-01T06:47:31;9.70;;;6.00;;
12554;SDS011;6343;50.868;4.700;2022-08-01T06:49:57;12.57;;;5.60;;
12554;SDS011;6343;50.868;4.700;2022-08-01T06:52:24;8.30;;;4.53;;
12554;SDS011;6343;50.868;4.700;2022-08-01T06:54:50;8.97;;;4.87;;
12554;SDS011;6343;50.868;4.700;2022-08-01T06:57:16;6.53;;;5.00;;
12554;SDS011;6343;50.868;4.700;2022-08-01T06:59:42;7.50;;;4.60;;
12554;SDS011;6343;50.868;4.700;2022-08-01T07:02:08;5.73;;;4.30;;
12554;SDS011;6343;50.868;4.700;2022-08-01T07:04:34;4.67;;;3.87;;
12554;SDS011;6343;50.868;4.700;2022-08-01T07:07:01;6.07;;;4.60;;
12554;SDS011;6343;50.868;4.700;2022-08-01T07:09:27;17.30;;;4.40;;
12554;SDS011;6343;50.868;4.700;2022-08-01T07:11:53;7.57;;;4.97;;
12554;SDS011;6343;50.868;4.700;2022-08-01T07:14:21;7.90;;;5.10;;
12554;SDS011;6343;50.868;4.700;2022-08-01T07:16:47;14.23;;;4.90;;
12554;SDS011;6343;50.868;4.700;2022-08-01T07:19:13;7.37;;;4.50;;
12554;SDS011;6343;50.868;4.700;2022-08-01T07:21:39;7.50;;;4.80;;
12554;SDS011;6343;50.868;4.700;2022-08-01T07:24:06;7.53;;;4.00;;
12554;SDS011;6343;50.868;4.700;2022-08-01T07:26:32;11.47;;;4.40;;
12554;SDS011;6343;50.868;4.700;2022-08-01T07:28:58;6.40;;;4.50;;
12554;SDS011;6343;50.868;4.700;2022-08-01T07:31:24;8.93;;;4.80;;
12554;SDS011;6343;50.868;4.700;2022-08-01T07:33:50;6.60;;;4.50;;
12554;SDS011;6343;50.868;4.700;2022-08-01T07:36:17;9.80;;;4.97;;
12554;SDS011;6343;50.868;4.700;2022-08-01T07:38:43;8.77;;;4.33;;
12554;SDS011;6343;50.868;4.700;2022-08-01T07:41:09;6.90;;;5.13;;
12554;SDS011;6343;50.868;4.700;2022-08-01T07:43:35;5.80;;;4.43;;
12554;SDS011;6343;50.868;4.700;2022-08-01T07:46:02;6.77;;;4.83;;
12554;SDS011;6343;50.868;4.700;2022-08-01T07:48:28;9.30;;;4.60;;
12554;SDS011;6343;50.868;4.700;2022-08-01T07:50:54;7.53;;;5.43;;
12554;SDS011;6343;50.868;4.700;2022-08-01T07:53:21;5.33;;;4.13;;
12554;SDS011;6343;50.868;4.700;2022-08-01T07:55:47;6.60;;;4.23;;
12554;SDS011;6343;50.868;4.700;2022-08-01T07:58:14;5.73;;;4.10;;
12554;SDS011;6343;50.868;4.700;2022-08-01T08:00:40;6.50;;;4.17;;
12554;SDS011;6343;50.868;4.700;2022-08-01T08:03:06;5.33;;;4.83;;
12554;SDS011;6343;50.868;4.700;2022-08-01T08:05:32;6.53;;;4.80;;
12554;SDS011;6343;50.868;4.700;2022-08-01T08:08:01;5.27;;;4.40;;
12554;SDS011;6343;50.868;4.700;2022-08-01T08:10:27;5.77;;;4.97;;
12554;SDS011;6343;50.868;4.700;2022-08-01T08:12:53;5.18;;;4.68;;
12554;SDS011;6343;50.868;4.700;2022-08-01T08:15:19;7.20;;;5.10;;
12554;SDS011;6343;50.868;4.700;2022-08-01T08:17:45;9.35;;;5.50;;
12554;SDS011;6343;50.868;4.700;2022-08-01T08:20:11;6.90;;;4.60;;
12554;SDS011;6343;50.868;4.700;2022-08-01T08:22:37;7.05;;;4.18;;
12554;SDS011;6343;50.868;4.700;2022-08-01T08:25:04;4.70;;;3.70;;
12554;SDS011;6343;50.868;4.700;2022-08-01T08:27:30;6.53;;;5.32;;
12554;SDS011;6343;50.868;4.700;2022-08-01T08:29:56;6.60;;;5.40;;
12554;SDS011;6343;50.868;4.700;2022-08-01T08:32:22;7.82;;;5.40;;
12554;SDS011;6343;50.868;4.700;2022-08-01T08:34:48;7.25;;;5.05;;
12554;SDS011;6343;50.868;4.700;2022-08-01T08:37:15;6.38;;;5.35;;
12554;SDS011;6343;50.868;4.700;2022-08-01T08:39:42;6.32;;;5.47;;
12554;SDS011;6343;50.868;4.700;2022-08-01T08:42:12;8.00;;;5.03;;
12554;SDS011;6343;50.868;4.700;2022-08-01T08:44:40;6.90;;;4.68;;
12554;SDS011;6343;50.868;4.700;2022-08-01T08:47:06;7.68;;;4.85;;
12554;SDS011;6343;50.868;4.700;2022-08-01T08:49:33;5.73;;;4.77;;
12554;SDS011;6343;50.868;4.700;2022-08-01T08:52:01;4.70;;;4.28;;
12554;SDS011;6343;50.868;4.700;2022-08-01T08:54:28;4.10;;;3.70;;
12554;SDS011;6343;50.868;4.700;2022-08-01T08:56:55;3.70;;;3.30;;
12554;SDS011;6343;50.868;4.700;2022-08-01T08:59:21;4.03;;;3.63;;
12554;SDS011;6343;50.868;4.700;2022-08-01T09:01:49;3.30;;;3.00;;
12554;SDS011;6343;50.868;4.700;2022-08-01T09:04:16;3.28;;;3.03;;
12554;SDS011;6343;50.868;4.700;2022-08-01T09:06:42;3.28;;;2.97;;
12554;SDS011;6343;50.868;4.700;2022-08-01T09:09:09;4.47;;;3.10;;
12554;SDS011;6343;50.868;4.700;2022-08-01T09:11:36;3.63;;;2.92;;
12554;SDS011;6343;50.868;4.700;2022-08-01T09:16:31;2.83;;;2.50;;
12554;SDS011;6343;50.868;4.700;2022-08-01T09:19:14;3.50;;;2.75;;
12554;SDS011;6343;50.868;4.700;2022-08-01T09:21:54;4.82;;;3.22;;
12554;SDS011;6343;50.868;4.700;2022-08-01T09:24:20;5.10;;;3.28;;
12554;SDS011;6343;50.868;4.700;2022-08-01T09:26:46;4.88;;;3.20;;
12554;SDS011;6343;50.868;4.700;2022-08-01T09:29:17;4.20;;;2.90;;
12554;SDS011;6343;50.868;4.700;2022-08-01T09:31:44;6.10;;;3.83;;
12554;SDS011;6343;50.868;4.700;2022-08-01T09:34:11;4.80;;;3.70;;
12554;SDS011;6343;50.868;4.700;2022-08-01T09:39:14;4.05;;;3.65;;
12554;SDS011;6343;50.868;4.700;2022-08-01T09:41:41;5.60;;;3.92;;
12554;SDS011;6343;50.868;4.700;2022-08-01T09:44:07;5.63;;;3.83;;
12554;SDS011;6343;50.868;4.700;2022-08-01T09:46:33;5.30;;;3.88;;
12554;SDS011;6343;50.868;4.700;2022-08-01T09:49:03;5.25;;;3.72;;
12554;SDS011;6343;50.868;4.700;2022-08-01T09:51:34;6.15;;;4.55;;
12554;SDS011;6343;50.868;4.700;2022-08-01T09:54:01;5.50;;;4.00;;
12554;SDS011;6343;50.868;4.700;2022-08-01T09:56:35;4.68;;;4.10;;
12554;SDS011;6343;50.868;4.700;2022-08-01T09:59:02;5.20;;;3.80;;
12554;SDS011;6343;50.868;4.700;2022-08-01T10:01:29;3.83;;;3.42;;
12554;SDS011;6343;50.868;4.700;2022-08-01T10:04:08;6.13;;;3.53;;
12554;SDS011;6343;50.868;4.700;2022-08-01T10:06:35;8.95;;;3.33;;
12554;SDS011;6343;50.868;4.700;2022-08-01T10:09:01;4.60;;;3.08;;
12554;SDS011;6343;50.868;4.700;2022-08-01T10:11:28;5.22;;;3.67;;
12554;SDS011;6343;50.868;4.700;2022-08-01T10:13:55;3.72;;;3.40;;
12554;SDS011;6343;50.868;4.700;2022-08-01T10:16:22;3.40;;;3.10;;
12554;SDS011;6343;50.868;4.700;2022-08-01T10:18:48;5.60;;;2.90;;
12554;SDS011;6343;50.868;4.700;2022-08-01T10:21:14;3.28;;;2.70;;
12554;SDS011;6343;50.868;4.700;2022-08-01T10:23:41;19.55;;;3.10;;
12554;SDS011;6343;50.868;4.700;2022-08-01T10:26:07;3.47;;;2.45;;
12554;SDS011;6343;50.868;4.700;2022-08-01T10:28:35;3.95;;;2.92;;
12554;SDS011;6343;50.868;4.700;2022-08-01T10:31:02;2.92;;;2.72;;
12554;SDS011;6343;50.868;4.700;2022-08-01T10:33:29;3.65;;;2.42;;
12554;SDS011;6343;50.868;4.700;2022-08-01T10:35:55;12.45;;;2.78;;
12554;SDS011;6343;50.868;4.700;2022-08-01T10:38:22;2.80;;;2.60;;
12554;SDS011;6343;50.868;4.700;2022-08-01T10:40:48;3.10;;;2.60;;
12554;SDS011;6343;50.868;4.700;2022-08-01T10:43:16;6.30;;;2.90;;
12554;SDS011;6343;50.868;4.700;2022-08-01T10:45:43;4.30;;;3.17;;
12554;SDS011;6343;50.868;4.700;2022-08-01T10:48:10;3.67;;;3.28;;
12554;SDS011;6343;50.868;4.700;2022-08-01T10:50:40;4.78;;;2.75;;
12554;SDS011;6343;50.868;4.700;2022-08-01T10:58:28;6.38;;;2.70;;
12554;SDS011;6343;50.868;4.700;2022-08-01T11:03:39;2.28;;;2.08;;
12554;SDS011;6343;50.868;4.700;2022-08-01T11:06:06;5.57;;;2.60;;
12554;SDS011;6343;50.868;4.700;2022-08-01T11:08:33;2.97;;;2.67;;
12554;SDS011;6343;50.868;4.700;2022-08-01T11:11:02;5.75;;;2.80;;
12554;SDS011;6343;50.868;4.700;2022-08-01T11:16:24;3.08;;;2.83;;
12554;SDS011;6343;50.868;4.700;2022-08-01T11:18:50;4.32;;;2.85;;
12554;SDS011;6343;50.868;4.700;2022-08-01T11:21:16;4.43;;;2.85;;
12554;SDS011;6343;50.868;4.700;2022-08-01T11:23:47;6.40;;;3.20;;
12554;SDS011;6343;50.868;4.700;2022-08-01T11:26:14;4.82;;;2.65;;
12554;SDS011;6343;50.868;4.700;2022-08-01T11:28:40;3.67;;;2.80;;
12554;SDS011;6343;50.868;4.700;2022-08-01T11:33:57;3.08;;;2.75;;
12554;SDS011;6343;50.868;4.700;2022-08-01T11:36:22;7.38;;;2.75;;
12554;SDS011;6343;50.868;4.700;2022-08-01T11:41:27;3.67;;;2.78;;
12554;SDS011;6343;50.868;4.700;2022-08-01T11:54:27;5.40;;;2.28;;
12554;SDS011;6343;50.868;4.700;2022-08-01T11:57:00;2.38;;;2.17;;
12554;SDS011;6343;50.868;4.700;2022-08-01T11:59:27;3.63;;;2.40;;
12554;SDS011;6343;50.868;4.700;2022-08-01T12:01:53;3.08;;;2.35;;
12554;SDS011;6343;50.868;4.700;2022-08-01T12:04:19;3.08;;;1.88;;
12554;SDS011;6343;50.868;4.700;2022-08-01T12:06:45;2.22;;;2.03;;
12554;SDS011;6343;50.868;4.700;2022-08-01T12:09:18;2.25;;;2.05;;
12554;SDS011;6343;50.868;4.700;2022-08-01T12:11:45;3.45;;;1.60;;
12554;SDS011;6343;50.868;4.700;2022-08-01T12:14:20;1.80;;;1.50;;
12554;SDS011;6343;50.868;4.700;2022-08-01T12:16:53;2.47;;;1.30;;
12554;SDS011;6343;50.868;4.700;2022-08-01T12:19:20;2.80;;;1.67;;
12554;SDS011;6343;50.868;4.700;2022-08-01T12:22:04;2.42;;;1.40;;
12554;SDS011;6343;50.868;4.700;2022-08-01T12:24:30;2.88;;;1.52;;
12554;SDS011;6343;50.868;4.700;2022-08-01T12:26:56;1.55;;;1.20;;
12554;SDS011;6343;50.868;4.700;2022-08-01T12:29:32;1.27;;;1.15;;
12554;SDS011;6343;50.868;4.700;2022-08-01T12:31:59;2.72;;;1.08;;
12554;SDS011;6343;50.868;4.700;2022-08-01T12:34:26;4.10;;;1.30;;
12554;SDS011;6343;50.868;4.700;2022-08-01T12:36:56;2.67;;;1.02;;
12554;SDS011;6343;50.868;4.700;2022-08-01T12:39:28;2.05;;;1.10;;
12554;SDS011;6343;50.868;4.700;2022-08-01T12:41:54;3.83;;;1.17;;
12554;SDS011;6343;50.868;4.700;2022-08-01T12:44:20;1.48;;;1.00;;
12554;SDS011;6343;50.868;4.700;2022-08-01T12:46:46;3.25;;;1.10;;
12554;SDS011;6343;50.868;4.700;2022-08-01T12:49:12;1.52;;;0.90;;
12554;SDS011;6343;50.868;4.700;2022-08-01T12:51:39;2.03;;;1.30;;
12554;SDS011;6343;50.868;4.700;2022-08-01T12:54:05;4.65;;;1.20;;
12554;SDS011;6343;50.868;4.700;2022-08-01T12:56:35;2.15;;;1.20;;
12554;SDS011;6343;50.868;4.700;2022-08-01T12:59:01;3.03;;;1.25;;
12554;SDS011;6343;50.868;4.700;2022-08-01T13:01:27;2.13;;;1.10;;
12554;SDS011;6343;50.868;4.700;2022-08-01T13:03:57;4.15;;;1.40;;
12554;SDS011;6343;50.868;4.700;2022-08-01T13:06:23;1.65;;;1.30;;
12554;SDS011;6343;50.868;4.700;2022-08-01T13:08:54;4.10;;;1.48;;
12554;SDS011;6343;50.868;4.700;2022-08-01T13:11:20;4.07;;;1.10;;
12554;SDS011;6343;50.868;4.700;2022-08-01T13:13:47;2.03;;;1.23;;
12554;SDS011;6343;50.868;4.700;2022-08-01T13:16:13;6.95;;;1.38;;
12554;SDS011;6343;50.868;4.700;2022-08-01T13:18:40;3.15;;;1.40;;
12554;SDS011;6343;50.868;4.700;2022-08-01T13:23:39;1.88;;;1.25;;
12554;SDS011;6343;50.868;4.700;2022-08-01T13:26:05;4.63;;;1.20;;
12554;SDS011;6343;50.868;4.700;2022-08-01T13:28:31;1.10;;;1.00;;
12554;SDS011;6343;50.868;4.700;2022-08-01T13:31:00;1.40;;;0.90;;
12554;SDS011;6343;50.868;4.700;2022-08-01T13:33:27;1.10;;;1.00;;
12554;SDS011;6343;50.868;4.700;2022-08-01T13:35:55;2.70;;;1.20;;
12554;SDS011;6343;50.868;4.700;2022-08-01T13:38:21;2.72;;;1.08;;
12554;SDS011;6343;50.868;4.700;2022-08-01T13:41:08;4.68;;;1.25;;
12554;SDS011;6343;50.868;4.700;2022-08-01T13:43:34;5.30;;;1.10;;
12554;SDS011;6343;50.868;4.700;2022-08-01T13:46:00;2.97;;;1.17;;
12554;SDS011;6343;50.868;4.700;2022-08-01T13:48:29;2.13;;;1.00;;
12554;SDS011;6343;50.868;4.700;2022-08-01T13:50:55;2.08;;;1.00;;
12554;SDS011;6343;50.868;4.700;2022-08-01T13:53:21;2.17;;;1.05;;
12554;SDS011;6343;50.868;4.700;2022-08-01T13:55:47;4.43;;;1.05;;
12554;SDS011;6343;50.868;4.700;2022-08-01T13:58:13;3.17;;;1.15;;
12554;SDS011;6343;50.868;4.700;2022-08-01T14:00:40;1.05;;;0.93;;
12554;SDS011;6343;50.868;4.700;2022-08-01T14:03:06;1.83;;;1.02;;
12554;SDS011;6343;50.868;4.700;2022-08-01T14:05:34;2.00;;;1.00;;
12554;SDS011;6343;50.868;4.700;2022-08-01T14:08:00;3.03;;;1.10;;
12554;SDS011;6343;50.868;4.700;2022-08-01T14:10:26;3.45;;;0.95;;
12554;SDS011;6343;50.868;4.700;2022-08-01T14:12:53;2.38;;;1.08;;
12554;SDS011;6343;50.868;4.700;2022-08-01T14:15:21;2.97;;;1.08;;
12554;SDS011;6343;50.868;4.700;2022-08-01T14:17:47;1.27;;;1.10;;
12554;SDS011;6343;50.868;4.700;2022-08-01T14:20:13;3.50;;;1.67;;
12554;SDS011;6343;50.868;4.700;2022-08-01T14:22:39;6.82;;;1.20;;
12554;SDS011;6343;50.868;4.700;2022-08-01T14:25:06;4.40;;;1.15;;
12554;SDS011;6343;50.868;4.700;2022-08-01T14:27:32;1.17;;;0.90;;
12554;SDS011;6343;50.868;4.700;2022-08-01T14:30:01;0.93;;;0.77;;
12554;SDS011;6343;50.868;4.700;2022-08-01T14:32:28;1.85;;;0.93;;
12554;SDS011;6343;50.868;4.700;2022-08-01T14:34:54;3.15;;;1.30;;
12554;SDS011;6343;50.868;4.700;2022-08-01T14:37:20;1.73;;;1.00;;
12554;SDS011;6343;50.868;4.700;2022-08-01T14:39:47;3.50;;;1.00;;
12554;SDS011;6343;50.868;4.700;2022-08-01T14:42:13;2.25;;;1.10;;
12554;SDS011;6343;50.868;4.700;2022-08-01T14:44:39;1.13;;;0.90;;
12554;SDS011;6343;50.868;4.700;2022-08-01T14:47:05;2.42;;;1.10;;
12554;SDS011;6343;50.868;4.700;2022-08-01T14:49:31;1.73;;;1.00;;
12554;SDS011;6343;50.868;4.700;2022-08-01T14:51:57;5.05;;;1.42;;
12554;SDS011;6343;50.868;4.700;2022-08-01T14:54:23;2.40;;;1.20;;
12554;SDS011;6343;50.868;4.700;2022-08-01T14:56:49;4.38;;;1.00;;
12554;SDS011;6343;50.868;4.700;2022-08-01T14:59:17;2.55;;;1.15;;
12554;SDS011;6343;50.868;4.700;2022-08-01T15:01:43;2.08;;;1.42;;
12554;SDS011;6343;50.868;4.700;2022-08-01T15:04:10;2.28;;;1.27;;
12554;SDS011;6343;50.868;4.700;2022-08-01T15:06:36;1.85;;;1.10;;
12554;SDS011;6343;50.868;4.700;2022-08-01T15:09:02;1.30;;;1.00;;
12554;SDS011;6343;50.868;4.700;2022-08-01T15:11:28;3.75;;;1.20;;
12554;SDS011;6343;50.868;4.700;2022-08-01T15:13:55;2.30;;;1.02;;
12554;SDS011;6343;50.868;4.700;2022-08-01T15:16:39;2.05;;;0.80;;
12554;SDS011;6343;50.868;4.700;2022-08-01T15:19:05;2.08;;;1.00;;
12554;SDS011;6343;50.868;4.700;2022-08-01T15:21:31;2.03;;;0.90;;
12554;SDS011;6343;50.868;4.700;2022-08-01T15:23:58;2.88;;;1.63;;
12554;SDS011;6343;50.868;4.700;2022-08-01T15:26:24;4.50;;;1.55;;
12554;SDS011;6343;50.868;4.700;2022-08-01T15:28:50;1.85;;;1.00;;
12554;SDS011;6343;50.868;4.700;2022-08-01T15:31:16;1.95;;;1.15;;
12554;SDS011;6343;50.868;4.700;2022-08-01T15:33:43;4.45;;;1.20;;
12554;SDS011;6343;50.868;4.700;2022-08-01T15:36:09;1.70;;;1.20;;
12554;SDS011;6343;50.868;4.700;2022-08-01T15:38:35;1.42;;;1.00;;
12554;SDS011;6343;50.868;4.700;2022-08-01T15:41:01;3.05;;;1.10;;
12554;SDS011;6343;50.868;4.700;2022-08-01T15:43:27;1.70;;;0.95;;
12554;SDS011;6343;50.868;4.700;2022-08-01T15:47:55;1.00;;;0.90;;
12554;SDS011;6343;50.868;4.700;2022-08-01T15:50:22;2.92;;;1.05;;
12554;SDS011;6343;50.868;4.700;2022-08-01T15:52:48;3.05;;;0.93;;